createdAt,value
2022-10-29T00:02:15.144Z,13.88
2022-10-29T00:04:41.994Z,12.95
2022-10-29T00:07:08.835Z,13.32
2022-10-29T00:09:35.766Z,13.23
2022-10-29T00:12:02.648Z,13.05
2022-10-29T00:14:29.572Z,12.10
2022-10-29T00:16:57.250Z,12.93
2022-10-29T00:19:24.235Z,13.40
2022-10-29T00:21:51.689Z,13.48
2022-10-29T00:24:18.585Z,13.95
2022-10-29T00:26:45.436Z,13.88
2022-10-29T00:29:12.329Z,13.80
2022-10-29T00:31:39.351Z,13.00
2022-10-29T00:34:06.336Z,13.45
2022-10-29T00:36:33.238Z,13.80
2022-10-29T00:39:00.094Z,11.63
2022-10-29T00:41:29.561Z,12.82
2022-10-29T00:44:15.183Z,11.07
2022-10-29T00:46:45.308Z,13.30
2022-10-29T00:49:12.489Z,12.98
2022-10-29T00:51:39.949Z,12.82
2022-10-29T00:54:13.229Z,14.00
2022-10-29T00:57:12.370Z,13.23
2022-10-29T00:59:40.118Z,13.52
2022-10-29T01:02:07.121Z,12.18
2022-10-29T01:04:35.276Z,11.98
2022-10-29T01:07:02.401Z,12.32
2022-10-29T01:09:29.225Z,11.38
2022-10-29T01:11:59.125Z,12.82
2022-10-29T01:14:47.773Z,12.13
2022-10-29T01:17:40.939Z,10.07
2022-10-29T01:20:31.009Z,12.95
2022-10-29T01:23:22.064Z,12.63
2022-10-29T01:26:22.585Z,11.55
2022-10-29T01:29:18.789Z,9.90
2022-10-29T01:32:00.250Z,11.88
2022-10-29T01:34:43.351Z,11.90
2022-10-29T01:37:39.010Z,12.77
2022-10-29T01:40:17.368Z,12.32
2022-10-29T01:42:53.368Z,12.10
2022-10-29T01:45:33.819Z,12.75
2022-10-29T01:48:14.440Z,11.52
2022-10-29T01:50:45.911Z,10.52
2022-10-29T01:53:13.681Z,10.80
2022-10-29T01:55:40.821Z,11.52
2022-10-29T01:58:08.496Z,12.75
2022-10-29T02:00:46.167Z,9.85
2022-10-29T02:03:42.182Z,13.57
2022-10-29T02:06:42.119Z,11.77
2022-10-29T02:09:20.826Z,11.77
2022-10-29T02:12:03.760Z,10.63
2022-10-29T02:14:35.547Z,11.05
2022-10-29T02:17:03.344Z,11.55
2022-10-29T02:19:35.895Z,12.02
2022-10-29T02:22:02.820Z,11.35
2022-10-29T02:24:29.729Z,12.63
2022-10-29T02:26:56.596Z,11.52
2022-10-29T02:29:24.175Z,11.85
2022-10-29T02:31:51.224Z,10.02
2022-10-29T02:34:18.086Z,11.90
2022-10-29T02:36:44.952Z,11.18
2022-10-29T02:39:11.821Z,10.60
2022-10-29T02:41:39.089Z,9.20
2022-10-29T02:44:05.984Z,10.82
2022-10-29T02:46:36.078Z,10.40
2022-10-29T02:49:03.094Z,10.70
2022-10-29T02:51:29.927Z,11.55
2022-10-29T02:53:56.851Z,11.27
2022-10-29T02:56:23.806Z,10.70
2022-10-29T02:58:50.692Z,6.38
2022-10-29T03:01:17.572Z,7.53
2022-10-29T03:03:44.470Z,10.85
2022-10-29T03:06:19.066Z,11.23
2022-10-29T03:08:46.898Z,10.40
2022-10-29T03:11:14.129Z,9.50
2022-10-29T03:13:41.080Z,10.43
2022-10-29T03:16:08.611Z,8.98
2022-10-29T03:18:35.634Z,9.40
2022-10-29T03:21:02.571Z,10.10
2022-10-29T03:23:29.469Z,10.75
2022-10-29T03:25:56.842Z,9.45
2022-10-29T03:28:25.553Z,10.35
2022-10-29T03:30:52.493Z,10.15
2022-10-29T03:33:19.402Z,9.50
2022-10-29T03:35:46.272Z,9.52
2022-10-29T03:38:13.341Z,10.10
2022-10-29T03:40:40.194Z,9.40
2022-10-29T03:43:07.060Z,9.85
2022-10-29T03:45:34.427Z,8.75
2022-10-29T03:48:04.663Z,9.85
2022-10-29T03:50:31.547Z,9.13
2022-10-29T03:52:58.661Z,8.80
2022-10-29T03:55:25.639Z,8.70
2022-10-29T03:57:52.613Z,7.95
2022-10-29T04:00:19.689Z,8.50
2022-10-29T04:02:46.720Z,8.43
2022-10-29T04:05:13.772Z,8.18
2022-10-29T04:07:40.724Z,8.48
2022-10-29T04:10:07.844Z,8.88
2022-10-29T04:12:34.754Z,8.30
2022-10-29T04:15:01.644Z,7.82
2022-10-29T04:17:28.507Z,7.78
2022-10-29T04:19:55.377Z,9.30
2022-10-29T04:30:43.910Z,8.13
2022-10-29T04:33:10.798Z,8.45
2022-10-29T04:35:37.644Z,7.75
2022-10-29T04:38:13.557Z,7.60
2022-10-29T04:40:40.476Z,7.72
2022-10-29T04:43:07.331Z,8.18
2022-10-29T04:45:34.669Z,7.88
2022-10-29T04:48:03.293Z,7.22
2022-10-29T04:50:31.084Z,7.43
2022-10-29T04:53:02.859Z,7.22
2022-10-29T04:55:30.280Z,7.00
2022-10-29T04:57:58.091Z,7.65
2022-10-29T05:00:25.413Z,8.23
2022-10-29T05:02:53.277Z,7.22
2022-10-29T05:05:21.591Z,7.22
2022-10-29T05:07:48.516Z,8.45
2022-10-29T05:10:15.538Z,7.30
2022-10-29T05:12:42.403Z,8.60
2022-10-29T05:15:09.666Z,8.25
2022-10-29T05:17:39.620Z,8.05
2022-10-29T05:20:07.178Z,7.25
2022-10-29T05:22:34.746Z,7.90
2022-10-29T05:25:01.593Z,7.68
2022-10-29T05:27:28.503Z,6.63
2022-10-29T05:29:55.421Z,6.65
2022-10-29T05:32:22.307Z,6.65
2022-10-29T05:34:49.211Z,7.15
2022-10-29T05:37:16.092Z,7.57
2022-10-29T05:39:42.972Z,6.47
2022-10-29T05:42:09.869Z,7.40
2022-10-29T05:44:36.850Z,5.78
2022-10-29T05:47:06.001Z,7.53
2022-10-29T05:49:32.926Z,5.90
2022-10-29T05:51:59.794Z,6.40
2022-10-29T05:54:26.645Z,6.22
2022-10-29T05:56:53.481Z,6.32
2022-10-29T05:59:20.392Z,5.88
2022-10-29T06:01:47.324Z,6.85
2022-10-29T06:04:14.223Z,7.57
2022-10-29T06:06:41.342Z,10.98
2022-10-29T06:09:08.345Z,5.72
2022-10-29T06:11:35.666Z,7.10
2022-10-29T06:14:02.752Z,6.28
2022-10-29T06:16:29.610Z,6.88
2022-10-29T06:18:56.631Z,6.13
2022-10-29T06:21:23.592Z,6.70
2022-10-29T06:23:54.093Z,6.38
2022-10-29T06:26:20.990Z,6.65
2022-10-29T06:28:48.189Z,7.35
2022-10-29T06:31:15.004Z,6.40
2022-10-29T06:33:41.905Z,7.05
2022-10-29T06:36:09.009Z,6.07
2022-10-29T06:38:35.914Z,6.95
2022-10-29T06:41:02.815Z,5.93
2022-10-29T06:43:29.851Z,6.80
2022-10-29T06:45:56.895Z,6.80
2022-10-29T06:48:24.072Z,6.15
2022-10-29T06:50:51.699Z,6.45
2022-10-29T06:53:19.237Z,6.53
2022-10-29T06:55:46.300Z,6.97
2022-10-29T06:58:15.275Z,5.97
2022-10-29T07:00:42.939Z,6.82
2022-10-29T07:03:14.373Z,6.03
2022-10-29T07:05:41.699Z,6.70
2022-10-29T07:08:08.833Z,6.65
2022-10-29T07:10:36.399Z,6.55
2022-10-29T07:13:03.360Z,7.03
2022-10-29T07:15:31.183Z,7.15
2022-10-29T07:18:00.319Z,6.63
2022-10-29T07:20:29.496Z,6.70
2022-10-29T07:22:57.738Z,6.18
2022-10-29T07:25:25.136Z,7.00
2022-10-29T07:27:52.560Z,7.57
2022-10-29T07:30:19.702Z,7.65
2022-10-29T07:32:46.862Z,6.53
2022-10-29T07:35:14.212Z,5.22
2022-10-29T07:37:41.044Z,6.63
2022-10-29T07:40:08.566Z,6.53
2022-10-29T07:42:35.518Z,7.28
2022-10-29T07:45:02.396Z,7.03
2022-10-29T07:47:29.306Z,6.57
2022-10-29T07:49:56.211Z,7.22
2022-10-29T07:52:23.145Z,6.70
2022-10-29T07:54:50.023Z,6.63
2022-10-29T07:57:17.030Z,6.82
2022-10-29T07:59:44.115Z,6.45
2022-10-29T08:02:11.708Z,6.28
2022-10-29T08:04:38.623Z,7.50
2022-10-29T08:07:05.452Z,6.78
2022-10-29T08:09:32.316Z,7.32
2022-10-29T08:11:59.181Z,6.40
2022-10-29T08:14:26.136Z,6.38
2022-10-29T08:16:56.092Z,6.32
2022-10-29T08:19:23.080Z,5.80
2022-10-29T08:21:49.957Z,6.28
2022-10-29T08:24:16.769Z,6.50
2022-10-29T08:26:44.113Z,6.38
2022-10-29T08:29:10.948Z,6.40
2022-10-29T08:31:37.808Z,6.10
2022-10-29T08:34:09.971Z,6.65
2022-10-29T08:36:37.921Z,6.25
2022-10-29T08:39:05.084Z,5.55
2022-10-29T08:42:01.066Z,6.15
2022-10-29T08:44:45.512Z,6.20
2022-10-29T08:47:21.779Z,6.32
2022-10-29T08:49:54.477Z,5.93
2022-10-29T08:52:28.200Z,7.15
2022-10-29T08:55:11.234Z,5.88
2022-10-29T08:57:44.024Z,7.35
2022-10-29T09:00:20.949Z,6.15
2022-10-29T09:02:53.749Z,6.57
2022-10-29T09:05:24.696Z,6.60
2022-10-29T09:08:11.776Z,5.97
2022-10-29T09:10:44.446Z,6.30
2022-10-29T09:13:40.599Z,6.20
2022-10-29T09:16:45.216Z,5.80
2022-10-29T09:19:30.628Z,6.40
2022-10-29T09:22:05.170Z,15.20
2022-10-29T09:27:10.543Z,7.00
2022-10-29T09:30:06.748Z,6.95
2022-10-29T09:32:41.995Z,5.97
2022-10-29T09:35:15.801Z,6.22
2022-10-29T09:37:54.116Z,6.57
2022-10-29T09:40:38.970Z,5.78
2022-10-29T09:43:18.326Z,6.60
2022-10-29T09:46:13.626Z,6.60
2022-10-29T09:49:28.793Z,6.60
2022-10-29T09:51:58.745Z,5.90
2022-10-29T09:54:29.001Z,5.95
2022-10-29T09:57:03.586Z,5.65
2022-10-29T09:59:45.417Z,5.97
2022-10-29T10:02:47.988Z,6.28
2022-10-29T10:05:18.587Z,6.10
2022-10-29T10:08:10.777Z,7.18
2022-10-29T10:11:05.240Z,6.60
2022-10-29T10:13:38.488Z,7.10
2022-10-29T10:16:06.747Z,7.50
2022-10-29T10:18:33.702Z,7.30
2022-10-29T10:21:08.861Z,7.05
2022-10-29T10:23:41.922Z,8.20
2022-10-29T10:26:53.077Z,7.47
2022-10-29T10:29:22.341Z,7.20
2022-10-29T10:31:50.340Z,6.78
2022-10-29T10:34:32.552Z,7.72
2022-10-29T10:37:11.278Z,6.18
2022-10-29T10:39:45.049Z,6.82
2022-10-29T10:42:28.736Z,7.25
2022-10-29T10:45:02.522Z,7.10
2022-10-29T10:47:36.835Z,7.50
2022-10-29T10:50:37.031Z,7.03
2022-10-29T10:53:26.220Z,7.15
2022-10-29T10:55:58.262Z,6.72
2022-10-29T10:58:30.922Z,6.40
2022-10-29T11:01:16.567Z,6.88
2022-10-29T11:03:46.793Z,7.35
2022-10-29T11:06:28.011Z,7.38
2022-10-29T11:09:07.417Z,8.35
2022-10-29T11:12:04.219Z,7.85
2022-10-29T11:14:36.712Z,7.60
2022-10-29T11:17:08.154Z,7.28
2022-10-29T11:19:47.896Z,7.40
2022-10-29T11:22:26.305Z,7.32
2022-10-29T11:25:05.122Z,8.05
2022-10-29T11:27:48.027Z,8.18
2022-10-29T11:30:17.540Z,7.07
2022-10-29T11:33:06.585Z,7.93
2022-10-29T11:35:49.356Z,7.38
2022-10-29T11:38:28.864Z,8.45
2022-10-29T11:41:04.989Z,8.70
2022-10-29T11:43:33.661Z,8.48
2022-10-29T11:46:12.174Z,8.23
2022-10-29T11:48:49.390Z,7.97
2022-10-29T11:51:46.106Z,8.40
2022-10-29T11:54:34.666Z,7.80
2022-10-29T11:57:09.179Z,8.38
2022-10-29T11:59:48.067Z,8.10
2022-10-29T12:02:38.622Z,7.30
2022-10-29T12:05:30.101Z,7.82
2022-10-29T12:08:14.785Z,8.07
2022-10-29T12:11:05.438Z,7.57
2022-10-29T12:13:54.446Z,7.32
2022-10-29T12:16:42.344Z,9.07
2022-10-29T12:19:36.082Z,8.48
2022-10-29T12:22:24.732Z,8.55
2022-10-29T12:25:06.542Z,8.00
2022-10-29T12:27:56.623Z,8.35
2022-10-29T12:30:25.044Z,8.35
2022-10-29T12:33:07.850Z,9.40
2022-10-29T12:35:51.684Z,8.30
2022-10-29T12:38:40.136Z,7.82
2022-10-29T12:41:31.659Z,7.82
2022-10-29T12:44:27.223Z,7.70
2022-10-29T12:47:11.087Z,7.75
2022-10-29T12:50:16.342Z,7.82
2022-10-29T12:53:23.755Z,8.15
2022-10-29T12:55:51.933Z,8.30
2022-10-29T12:58:59.805Z,7.93
2022-10-29T13:01:50.092Z,9.18
2022-10-29T13:04:25.826Z,9.60
2022-10-29T13:07:26.855Z,8.27
2022-10-29T13:10:29.643Z,8.60
2022-10-29T13:12:59.614Z,9.70
2022-10-29T13:15:35.531Z,9.25
2022-10-29T13:18:28.840Z,10.77
2022-10-29T13:20:56.106Z,10.75
2022-10-29T13:23:22.989Z,8.55
2022-10-29T13:25:57.959Z,9.23
2022-10-29T13:28:24.827Z,10.57
2022-10-29T13:31:13.182Z,8.70
2022-10-29T13:33:40.019Z,10.02
2022-10-29T13:36:16.031Z,9.52
2022-10-29T13:38:58.154Z,8.95
2022-10-29T13:41:44.311Z,9.18
2022-10-29T13:44:25.467Z,9.18
2022-10-29T13:47:25.391Z,10.18
2022-10-29T13:49:52.418Z,10.35
2022-10-29T13:52:21.580Z,8.85
2022-10-29T13:54:57.755Z,8.85
2022-10-29T13:57:35.658Z,9.60
2022-10-29T14:00:20.989Z,7.70
2022-10-29T14:03:18.833Z,8.70
2022-10-29T14:05:57.493Z,8.65
2022-10-29T14:08:35.973Z,8.77
2022-10-29T14:11:12.550Z,9.75
2022-10-29T14:13:54.738Z,9.15
2022-10-29T14:16:29.194Z,10.68
2022-10-29T14:18:56.221Z,10.82
2022-10-29T14:21:28.391Z,10.60
2022-10-29T14:24:09.739Z,11.10
2022-10-29T14:26:39.526Z,9.45
2022-10-29T14:29:23.517Z,9.98
2022-10-29T14:32:14.045Z,11.50
2022-10-29T14:34:41.825Z,11.18
2022-10-29T14:37:19.881Z,13.02
2022-10-29T14:39:58.372Z,12.50
2022-10-29T14:42:32.407Z,11.98
2022-10-29T14:45:04.973Z,13.88
2022-10-29T14:47:38.988Z,14.77
2022-10-29T14:50:18.660Z,13.30
2022-10-29T14:52:53.367Z,12.88
2022-10-29T14:55:36.739Z,12.18
2022-10-29T14:58:19.799Z,12.57
2022-10-29T15:00:58.953Z,15.82
2022-10-29T15:03:30.188Z,14.32
2022-10-29T15:06:25.719Z,13.82
2022-10-29T15:09:07.441Z,13.20
2022-10-29T15:11:47.600Z,13.00
2022-10-29T15:14:48.262Z,12.55
2022-10-29T15:17:22.495Z,14.35
2022-10-29T15:19:53.748Z,15.30
2022-10-29T15:22:32.824Z,13.75
2022-10-29T15:25:02.763Z,14.98
2022-10-29T15:27:29.683Z,16.05
2022-10-29T15:29:56.924Z,17.15
2022-10-29T15:32:25.180Z,16.70
2022-10-29T15:34:56.911Z,16.13
2022-10-29T15:37:26.034Z,18.60
2022-10-29T15:40:12.531Z,18.30
2022-10-29T15:42:39.823Z,38.60
2022-10-29T15:45:27.796Z,14.65
2022-10-29T15:48:09.841Z,15.13
2022-10-29T15:50:42.391Z,14.13
2022-10-29T15:53:15.319Z,15.73
2022-10-29T15:55:42.521Z,15.13
2022-10-29T15:58:16.096Z,16.08
2022-10-29T16:00:43.363Z,15.30
2022-10-29T16:03:13.364Z,14.85
2022-10-29T16:05:41.864Z,14.18
2022-10-29T16:08:21.442Z,14.98
2022-10-29T16:10:48.389Z,14.85
2022-10-29T16:13:16.981Z,14.43
2022-10-29T16:15:44.443Z,14.73
2022-10-29T16:18:11.369Z,16.27
2022-10-29T16:20:38.201Z,15.98
2022-10-29T16:23:05.166Z,15.13
2022-10-29T16:25:32.032Z,16.73
2022-10-29T16:27:59.402Z,16.92
2022-10-29T16:30:26.577Z,15.90
2022-10-29T16:32:54.298Z,16.90
2022-10-29T16:35:26.735Z,16.77
2022-10-29T16:37:55.075Z,16.83
2022-10-29T16:40:24.417Z,16.45
2022-10-29T16:42:51.731Z,17.05
2022-10-29T16:45:24.670Z,17.90
2022-10-29T16:47:52.400Z,18.83
2022-10-29T16:50:25.274Z,18.38
2022-10-29T16:52:59.344Z,19.85
2022-10-29T16:55:27.871Z,19.73
2022-10-29T16:57:55.016Z,17.98
2022-10-29T17:00:22.979Z,19.45
2022-10-29T17:02:49.830Z,18.52
2022-10-29T17:05:16.893Z,17.55
2022-10-29T17:07:43.824Z,18.55
2022-10-29T17:10:11.040Z,18.60
2022-10-29T17:12:38.400Z,18.90
2022-10-29T17:15:06.975Z,18.55
2022-10-29T17:17:33.865Z,18.65
2022-10-29T17:20:00.722Z,18.35
2022-10-29T17:22:27.641Z,18.67
2022-10-29T17:24:57.509Z,18.55
2022-10-29T17:27:24.413Z,17.08
2022-10-29T17:29:51.344Z,18.05
2022-10-29T17:32:19.044Z,16.73
2022-10-29T17:34:45.946Z,16.48
2022-10-29T17:37:12.821Z,17.98
2022-10-29T17:39:39.755Z,16.95
2022-10-29T17:42:06.616Z,21.55
2022-10-29T17:44:35.567Z,18.08
2022-10-29T17:47:02.557Z,18.02
2022-10-29T17:49:29.508Z,17.38
2022-10-29T17:51:56.370Z,17.05
2022-10-29T17:54:23.406Z,17.42
2022-10-29T17:56:51.561Z,17.08
2022-10-29T17:59:18.448Z,15.40
2022-10-29T18:01:45.644Z,16.88
2022-10-29T18:04:12.654Z,16.75
2022-10-29T18:06:39.594Z,15.55
2022-10-29T18:09:06.837Z,14.73
2022-10-29T18:11:34.179Z,16.02
2022-10-29T18:14:01.085Z,15.98
2022-10-29T18:16:29.878Z,15.52
2022-10-29T18:19:02.822Z,16.00
2022-10-29T18:21:31.453Z,15.52
2022-10-29T18:23:58.640Z,17.05
2022-10-29T18:26:34.129Z,15.63
2022-10-29T18:29:04.838Z,16.60
2022-10-29T18:31:32.244Z,17.13
2022-10-29T18:34:01.224Z,16.98
2022-10-29T18:36:28.733Z,16.77
2022-10-29T18:38:57.370Z,18.52
2022-10-29T18:41:25.129Z,17.23
2022-10-29T18:43:52.612Z,16.75
2022-10-29T18:46:19.948Z,16.17
2022-10-29T18:48:48.277Z,16.85
2022-10-29T18:51:24.457Z,16.23
2022-10-29T18:53:53.443Z,17.17
2022-10-29T18:56:22.037Z,16.63
2022-10-29T18:58:49.568Z,17.92
2022-10-29T19:01:28.269Z,18.33
2022-10-29T19:03:58.951Z,18.02
2022-10-29T19:06:28.485Z,19.48
2022-10-29T19:08:55.657Z,17.98
2022-10-29T19:11:27.903Z,18.13
2022-10-29T19:14:00.013Z,19.53
2022-10-29T19:16:28.372Z,19.80
2022-10-29T19:19:00.826Z,19.08
2022-10-29T19:21:27.831Z,18.65
2022-10-29T19:23:59.572Z,18.55
2022-10-29T19:26:29.358Z,16.92
2022-10-29T19:28:56.742Z,17.65
2022-10-29T19:31:29.634Z,19.77
2022-10-29T19:33:59.757Z,18.15
2022-10-29T19:36:28.056Z,18.52
2022-10-29T19:38:55.492Z,17.83
2022-10-29T19:41:22.537Z,18.80
2022-10-29T19:43:49.412Z,18.60
2022-10-29T19:46:18.383Z,17.70
2022-10-29T19:48:53.464Z,18.52
2022-10-29T19:51:21.451Z,17.90
2022-10-29T19:53:51.346Z,17.60
2022-10-29T19:56:19.274Z,18.10
2022-10-29T19:58:47.265Z,18.25
2022-10-29T20:01:19.089Z,18.80
2022-10-29T20:03:46.789Z,17.52
2022-10-29T20:06:14.696Z,17.30
2022-10-29T20:08:42.224Z,16.90
2022-10-29T20:11:09.170Z,17.52
2022-10-29T20:13:36.810Z,17.20
2022-10-29T20:16:12.219Z,17.10
2022-10-29T20:18:39.177Z,18.58
2022-10-29T20:23:33.518Z,16.40
2022-10-29T20:26:00.391Z,16.80
2022-10-29T20:28:27.283Z,18.17
2022-10-29T20:31:38.534Z,16.70
2022-10-29T20:34:11.852Z,17.35
2022-10-29T20:36:39.210Z,22.15
2022-10-29T20:39:07.386Z,21.10
2022-10-29T20:41:34.326Z,16.73
2022-10-29T20:44:01.669Z,15.30
2022-10-29T20:46:28.889Z,15.20
2022-10-29T20:48:56.018Z,16.63
2022-10-29T20:51:23.733Z,17.35
2022-10-29T20:53:51.869Z,16.40
2022-10-29T20:56:24.401Z,17.67
2022-10-29T20:58:51.379Z,18.27
2022-10-29T21:01:20.138Z,17.45
2022-10-29T21:03:48.526Z,16.95
2022-10-29T21:06:17.521Z,15.90
2022-10-29T21:08:46.053Z,15.15
2022-10-29T21:11:14.653Z,15.55
2022-10-29T21:13:42.221Z,15.25
2022-10-29T21:16:19.836Z,14.75
2022-10-29T21:18:49.287Z,14.23
2022-10-29T21:21:16.799Z,14.43
2022-10-29T21:23:44.079Z,15.00
2022-10-29T21:26:13.578Z,13.18
2022-10-29T21:28:40.534Z,13.50
2022-10-29T21:31:07.821Z,13.85
2022-10-29T21:33:34.923Z,14.73
2022-10-29T21:36:02.134Z,14.70
2022-10-29T21:38:30.041Z,15.65
2022-10-29T21:40:57.120Z,15.88
2022-10-29T21:43:23.990Z,15.48
2022-10-29T21:45:52.026Z,16.27
2022-10-29T21:48:19.619Z,15.43
2022-10-29T21:50:47.006Z,16.98
2022-10-29T21:53:17.119Z,15.75
2022-10-29T21:55:43.961Z,15.77
2022-10-29T21:58:10.808Z,16.25
2022-10-29T22:00:37.719Z,16.33
2022-10-29T22:03:04.871Z,16.52
2022-10-29T22:05:31.949Z,17.67
2022-10-29T22:07:59.635Z,17.83
2022-10-29T22:10:26.662Z,18.55
2022-10-29T22:12:53.460Z,17.48
2022-10-29T22:15:20.358Z,16.50
2022-10-29T22:17:47.319Z,18.08
2022-10-29T22:20:14.257Z,18.50
2022-10-29T22:22:41.097Z,18.23
2022-10-29T22:25:08.375Z,18.40
2022-10-29T22:27:35.398Z,17.88
2022-10-29T22:30:02.625Z,17.40
2022-10-29T22:32:29.490Z,17.23
2022-10-29T22:34:56.333Z,16.02
2022-10-29T22:37:23.174Z,17.25
2022-10-29T22:39:50.018Z,16.33
2022-10-29T22:42:16.912Z,15.85
2022-10-29T22:44:43.823Z,16.77
2022-10-29T22:47:10.643Z,17.25
2022-10-29T22:49:37.467Z,16.92
2022-10-29T22:52:04.974Z,16.38
2022-10-29T22:54:31.900Z,17.23
2022-10-29T22:56:58.780Z,17.83
2022-10-29T22:59:25.668Z,17.35
2022-10-29T23:01:52.602Z,16.27
2022-10-29T23:04:19.516Z,16.73
2022-10-29T23:06:47.910Z,16.85
2022-10-29T23:09:14.807Z,16.52
2022-10-29T23:11:41.649Z,16.20
2022-10-29T23:14:08.885Z,15.27
2022-10-29T23:16:36.349Z,16.25
2022-10-29T23:19:05.426Z,19.15
2022-10-29T23:21:33.055Z,17.05
2022-10-29T23:24:00.544Z,14.75
2022-10-29T23:26:27.594Z,16.65
2022-10-29T23:28:54.890Z,15.95
2022-10-29T23:31:24.539Z,15.85
2022-10-29T23:33:55.894Z,16.20
2022-10-29T23:36:23.970Z,15.88
2022-10-29T23:39:01.347Z,15.90
2022-10-29T23:41:30.934Z,15.52
2022-10-29T23:43:58.340Z,15.43
2022-10-29T23:46:25.429Z,16.85
2022-10-29T23:48:52.370Z,14.98
2022-10-29T23:51:19.374Z,15.77
2022-10-29T23:53:47.561Z,14.75
2022-10-29T23:56:15.088Z,16.15
2022-10-29T23:58:41.951Z,15.02
